Condicions actuals
Majoritàriament Clar



Pressió:
1012.92 (hPa) - 29.91 (inHG)
Visibilitat:

10.0 (km) - 6.2 (miles)
Base de Núvols

Clar (Mts) - Clar (Feets)
   Temperatura
11  °C
Temperatura
3  °C
P.ros.
58  %
 Humitat
   Velocitat del Vent
8  km/h
4  kts
5  mph
2.2  m/s
   Vent Direcció
N
45°
E
90°
135°
S
180°
225°
O
270°
315°
 270°

Del   Oest
   Airport Data
LEBL
Josep Tarradellas Barcelona-El Prat Airport
Metar :LEBL 050000Z 27004KT CAVOK 11/03 Q1013 NOSIG
Sun 5th December 01:00 am
   Raw Metar Info
Raw METAR is the most common format in the world for the transmission of observational weather data. It is highly standardized through the International Civil Aviation Organization (ICAO), which allows it to be understood throughout most of the world.
   API Info
Data Provided by
https://www.checkwx.com/weather/LEBL

Aviation Weather providing METAR, TAF, AIRMET, SIGMET and OUTLOOK Weather Reports
   © Info
CSS/SVG/PHP scripts were developed by weather34.com for use in the weather34 template © 2015-2021

Guide Info provided by Metar-Wikipedia